Whitewater, CA

7:31 AM PST on February 27, 2017 (GMT -0800)
MUP442 | | Change Station
Active Advisory: Wind Advisory Active Notice: Public Information Statement

Elev 1131 ft 33.90 °N, 116.64 °W | Updated 19 minutes ago

Light Rain
Light Rain
56.0 °F
Feels Like 56.0 °F
N
2.0
Wind Variable Wind from SSW
Gusts 2.0 mph

Today
High -- | Low -- °F
--% Chance of Precip.
Yesterday
High -- | Low -- °F
Precip. -- in
Pressure 29.90 in
Visibility 10.0 miles
Clouds Overcast 6500 ft
Dew Point Not available.
Humidity Not available.
Rainfall in
Snow Depth Not available.
6:17 AM 5:41 PM
New Moon, 1% visible
METAR KPSP 271453Z VRB04KT 10SM -RA OVC065 11/07 A2990 RMK AO2 RAB04E16B32 SLP125 P0000 60000 T01110067 51019
Pressure 29.90 in
Visibility 10.0 miles
Clouds Overcast 6500 ft
Dew Point Not available.
Humidity Not available.
Rainfall in
Snow Depth Not available.
6:17 AM 5:41 PM
New Moon, 1% visible
METAR KPSP 271453Z VRB04KT 10SM -RA OVC065 11/07 A2990 RMK AO2 RAB04E16B32 SLP125 P0000 60000 T01110067 51019

Get Your Daily Forecast Email!

Thanks for signing up!

Be on the lookout for a verification email in your inbox.

You'll start receiving the daily forecast at 8 AM.

×

10-Day Weather Forecast

Almanac

Astronomy

Feb. 27, 2017 Rise Set
Actual Time
Civil Twilight
Nautical Twilight
Astronomical Twilight
Moon
Length of Visible Light
Length of Day
Tomorrow will be .
, % of the Moon is Illuminated

Today's Extremes

State Highs State Lows

Community

WunderPhotos

Upload Photos

1,962,540 photos uploaded!

WunderBlog® & News

Nearby

Air Quality

  Air Quality AQ Index Pollutant
Not available.

Snow Depth

Station Depth Elevation

Earthquake Activity

City Distance Mag. Time & Date
Minimum magnitude displayed is 2.5.

Coastal Water Temperatures

Place Temperature

Stations

Nearby Weather Stations

Station Location Temp. Windchill Dew Point Humidity Wind Precip. Elev Updated Type
                   

Watches & Warnings

Wind Advisory
Issued: 2:07 AM PST Feb. 27, 2017 – National Weather Service

... Wind Advisory now in effect until 10 am PST Tuesday...

* winds... west 25 to 35 mph with gusts to 55 mph. Isolated gusts to
65 mph at times in the most wind-prone areas.

* Timing... strongest winds are expected through late
tonight... gradually decreasing Tuesday morning.

* Location... strongest winds are expected near Mountain Ridge
tops onto the desert slopes of the mountains and in the
northern Coachella Valley below the San Gorgonio Pass.

* Impacts... driving will be hazardous for motorists in high
profile vehicles.

* Reports... strongest gusts through 2 am of 63 mph at Whitewater
in the northern Coachella Valley... and 62 mph at Volcan mountain
in the San Diego County mountains.

Precautionary/preparedness actions...

A Wind Advisory means that sustained winds of 35 mph, or gusts of
50 mph or more are expected. Winds this strong can make driving
difficult... especially for motorists in high profile vehicles.
Use extra caution.



17